createdAt,value
2022-11-16T00:00:17.798Z,14.00
2022-11-16T00:04:19.499Z,14.10
2022-11-16T00:08:21.319Z,14.20
2022-11-16T00:12:22.963Z,14.30
2022-11-16T00:16:24.850Z,14.20
2022-11-16T00:20:26.513Z,14.70
2022-11-16T00:24:28.199Z,14.50
2022-11-16T00:28:30.057Z,14.10
2022-11-16T00:32:32.117Z,14.40
2022-11-16T00:36:33.785Z,14.30
2022-11-16T00:40:35.483Z,14.40
2022-11-16T00:44:38.736Z,14.30
2022-11-16T00:48:40.526Z,14.60
2022-11-16T00:52:42.252Z,14.30
2022-11-16T00:56:43.881Z,14.30
2022-11-16T01:00:46.190Z,14.40
2022-11-16T01:04:47.850Z,14.20
2022-11-16T01:08:49.969Z,14.10
2022-11-16T01:12:53.148Z,13.90
2022-11-16T01:16:55.201Z,14.40
2022-11-16T01:20:56.889Z,14.40
2022-11-16T01:24:58.598Z,14.30
2022-11-16T01:29:00.387Z,14.30
2022-11-16T01:33:02.096Z,14.40
2022-11-16T01:37:03.899Z,14.50
2022-11-16T01:41:05.916Z,14.70
2022-11-16T01:45:16.912Z,14.30
2022-11-16T01:49:22.448Z,14.30
2022-11-16T01:53:24.975Z,14.40
2022-11-16T01:57:32.690Z,14.40
2022-11-16T02:01:34.393Z,14.40
2022-11-16T02:05:48.226Z,14.40
2022-11-16T02:10:13.601Z,14.50
2022-11-16T02:14:33.845Z,14.00
2022-11-16T02:18:45.445Z,13.90
2022-11-16T02:23:15.516Z,14.00
2022-11-16T02:28:11.060Z,13.80
2022-11-16T02:32:31.576Z,13.80
2022-11-16T02:36:35.515Z,14.10
2022-11-16T02:40:41.170Z,13.70
2022-11-16T02:44:47.081Z,14.30
2022-11-16T02:48:53.606Z,14.30
2022-11-16T02:52:55.761Z,13.90
2022-11-16T02:57:03.538Z,14.20
2022-11-16T03:01:08.456Z,14.00
2022-11-16T03:05:17.088Z,13.80
2022-11-16T03:09:24.347Z,13.00
2022-11-16T03:13:30.426Z,13.00
2022-11-16T03:17:44.738Z,13.90
2022-11-16T03:21:59.370Z,14.00
2022-11-16T03:26:06.645Z,13.90
2022-11-16T03:30:23.328Z,14.20
2022-11-16T03:34:31.794Z,14.00
2022-11-16T03:38:36.730Z,14.30
2022-11-16T03:42:39.776Z,14.40
2022-11-16T03:46:43.272Z,14.30
2022-11-16T03:50:45.537Z,14.50
2022-11-16T03:54:47.256Z,14.80
2022-11-16T03:58:49.122Z,14.50
2022-11-16T04:02:50.827Z,14.40
2022-11-16T04:07:10.958Z,14.30
2022-11-16T04:11:35.125Z,14.30
2022-11-16T04:16:01.551Z,14.30
2022-11-16T04:20:23.489Z,14.50
2022-11-16T04:24:28.852Z,14.50
2022-11-16T04:28:34.490Z,14.50
2022-11-16T04:32:55.105Z,14.50
2022-11-16T04:37:15.675Z,14.70
2022-11-16T04:41:36.113Z,14.50
2022-11-16T04:45:56.484Z,14.50
2022-11-16T04:49:58.145Z,14.30
2022-11-16T04:53:59.888Z,14.20
2022-11-16T04:58:02.276Z,14.10
2022-11-16T05:02:09.696Z,14.20
2022-11-16T05:06:11.360Z,14.70
2022-11-16T05:10:14.324Z,14.50
2022-11-16T05:14:15.977Z,14.60
2022-11-16T05:18:17.705Z,14.50
2022-11-16T05:22:19.418Z,14.30
2022-11-16T05:26:21.105Z,14.30
2022-11-16T05:30:22.907Z,13.90
2022-11-16T05:34:24.892Z,13.70
2022-11-16T05:38:26.609Z,13.80
2022-11-16T05:42:28.253Z,14.10
2022-11-16T05:46:29.961Z,14.40
2022-11-16T05:50:31.681Z,14.00
2022-11-16T05:54:34.031Z,14.50
2022-11-16T05:58:36.065Z,14.60
2022-11-16T06:02:38.039Z,14.70
2022-11-16T06:06:44.681Z,14.60
2022-11-16T06:10:46.358Z,14.50
2022-11-16T06:14:48.049Z,14.30
2022-11-16T06:18:49.830Z,14.70
2022-11-16T06:22:51.494Z,14.60
2022-11-16T06:26:53.183Z,14.70
2022-11-16T06:30:54.927Z,14.80
2022-11-16T06:34:56.637Z,14.80
2022-11-16T06:39:00.941Z,14.90
2022-11-16T06:43:02.683Z,14.60
2022-11-16T06:47:04.480Z,14.70
2022-11-16T06:51:06.315Z,14.70
2022-11-16T06:55:08.461Z,14.60
2022-11-16T06:59:10.105Z,14.70
2022-11-16T07:03:12.025Z,14.60
2022-11-16T07:07:16.041Z,14.40
2022-11-16T07:11:17.991Z,14.10
2022-11-16T07:15:19.895Z,14.30
2022-11-16T07:19:21.602Z,14.10
2022-11-16T07:23:24.276Z,14.20
2022-11-16T07:27:26.066Z,14.50
2022-11-16T07:31:28.156Z,14.80
2022-11-16T07:35:29.933Z,14.80
2022-11-16T07:39:31.664Z,14.90
2022-11-16T07:43:35.226Z,14.90
2022-11-16T07:47:38.028Z,14.60
2022-11-16T07:51:39.685Z,14.70
2022-11-16T07:55:41.380Z,14.80
2022-11-16T07:59:43.128Z,15.00
2022-11-16T08:03:46.279Z,15.20
2022-11-16T08:07:48.186Z,15.10
2022-11-16T08:11:51.272Z,15.20
2022-11-16T08:15:54.886Z,15.20
2022-11-16T08:19:56.635Z,15.30
2022-11-16T08:23:59.023Z,15.50
2022-11-16T08:28:00.879Z,15.30
2022-11-16T08:32:02.756Z,15.60
2022-11-16T08:36:14.354Z,15.30
2022-11-16T08:40:16.618Z,15.30
2022-11-16T08:44:18.367Z,15.30
2022-11-16T08:48:20.377Z,15.20
2022-11-16T08:52:22.110Z,15.60
2022-11-16T08:56:27.094Z,15.40
2022-11-16T09:00:28.914Z,15.20
2022-11-16T09:04:36.747Z,14.80
2022-11-16T09:08:44.514Z,14.70
2022-11-16T09:12:46.234Z,14.80
2022-11-16T09:16:48.580Z,15.40
2022-11-16T09:20:50.592Z,15.40
2022-11-16T09:24:52.391Z,15.70
2022-11-16T09:29:03.153Z,15.60
2022-11-16T09:33:04.855Z,15.60
2022-11-16T09:37:08.032Z,15.60
2022-11-16T09:41:21.937Z,15.80
2022-11-16T09:45:51.383Z,15.90
2022-11-16T09:49:59.859Z,15.80
2022-11-16T09:54:13.475Z,15.80
2022-11-16T09:58:21.353Z,15.80
2022-11-16T10:02:28.298Z,15.90
2022-11-16T10:06:47.570Z,15.60
2022-11-16T10:11:19.480Z,15.70
2022-11-16T10:15:48.515Z,16.00
2022-11-16T10:19:50.171Z,16.20
2022-11-16T10:24:09.911Z,16.50
2022-11-16T10:28:36.451Z,16.80
2022-11-16T10:32:46.918Z,16.90
2022-11-16T10:36:48.753Z,16.70
2022-11-16T10:40:57.926Z,16.20
2022-11-16T10:45:05.977Z,16.20
2022-11-16T10:49:40.472Z,14.80
2022-11-16T10:53:46.553Z,15.50
2022-11-16T10:58:05.803Z,16.00
2022-11-16T11:02:31.295Z,16.40
2022-11-16T11:06:33.389Z,16.20
2022-11-16T11:10:38.674Z,16.00
2022-11-16T11:14:40.511Z,15.60
2022-11-16T11:18:42.456Z,15.80
2022-11-16T11:22:58.288Z,15.50
2022-11-16T11:27:00.260Z,14.90
2022-11-16T11:31:32.391Z,16.00
2022-11-16T11:35:34.380Z,15.90
2022-11-16T11:39:37.571Z,16.30
2022-11-16T11:43:39.795Z,16.40
2022-11-16T11:48:02.974Z,16.20
2022-11-16T11:52:19.264Z,16.40
2022-11-16T11:56:21.104Z,16.20
2022-11-16T12:00:23.866Z,16.40
2022-11-16T12:04:59.776Z,16.70
2022-11-16T12:09:01.579Z,16.90
2022-11-16T12:13:38.324Z,17.10
2022-11-16T12:17:46.127Z,17.00
2022-11-16T12:21:59.623Z,17.10
2022-11-16T12:26:22.514Z,17.30
2022-11-16T12:30:24.821Z,17.50
2022-11-16T12:34:48.369Z,16.80
2022-11-16T12:38:59.838Z,16.60
2022-11-16T12:43:19.636Z,17.20
2022-11-16T12:47:39.505Z,17.40
2022-11-16T12:51:57.166Z,17.40
2022-11-16T12:56:21.246Z,17.30
2022-11-16T13:00:23.003Z,17.30
2022-11-16T13:04:48.327Z,17.90
2022-11-16T13:09:02.258Z,17.80
2022-11-16T13:13:35.505Z,18.00
2022-11-16T13:17:38.487Z,17.80
2022-11-16T13:21:59.840Z,17.70
2022-11-16T13:26:23.741Z,17.80
2022-11-16T13:30:34.868Z,17.80
2022-11-16T13:34:40.076Z,17.80
2022-11-16T13:38:54.198Z,17.70
2022-11-16T13:43:11.380Z,17.60
2022-11-16T13:47:22.386Z,17.50
2022-11-16T13:51:24.650Z,17.30
2022-11-16T13:55:30.012Z,17.60
2022-11-16T13:59:34.784Z,17.50
2022-11-16T14:03:38.805Z,17.80
2022-11-16T14:07:49.932Z,17.70
2022-11-16T14:11:51.730Z,17.70
2022-11-16T14:16:22.676Z,17.50
2022-11-16T14:20:31.908Z,17.00
2022-11-16T14:25:02.553Z,17.30
2022-11-16T14:29:33.071Z,17.70
2022-11-16T14:33:37.334Z,17.50
2022-11-16T14:37:42.332Z,17.90
2022-11-16T14:41:46.491Z,17.50
2022-11-16T14:45:54.571Z,17.50
2022-11-16T14:49:57.058Z,17.40
2022-11-16T14:54:02.674Z,17.40
2022-11-16T14:58:10.199Z,17.40
2022-11-16T15:02:26.723Z,17.50
2022-11-16T15:06:32.214Z,17.00
2022-11-16T15:10:33.910Z,16.90
2022-11-16T15:14:41.542Z,16.90
2022-11-16T15:19:00.462Z,17.00
2022-11-16T15:23:04.281Z,17.10
2022-11-16T15:27:10.702Z,17.10
2022-11-16T15:31:14.958Z,17.10
2022-11-16T15:35:33.170Z,17.10
2022-11-16T15:39:36.731Z,17.00
2022-11-16T15:44:01.451Z,16.90
2022-11-16T15:48:24.983Z,16.70
2022-11-16T15:52:43.810Z,16.60
2022-11-16T15:56:45.532Z,16.40
2022-11-16T16:00:48.744Z,16.60
2022-11-16T16:04:50.937Z,16.30
2022-11-16T16:09:05.054Z,15.80
2022-11-16T16:13:25.236Z,15.70
2022-11-16T16:17:31.027Z,15.90
2022-11-16T16:21:45.140Z,16.00
2022-11-16T16:25:50.589Z,16.20
2022-11-16T16:29:54.508Z,16.10
2022-11-16T16:33:56.288Z,15.80
2022-11-16T16:38:01.006Z,16.10
2022-11-16T16:42:03.103Z,15.90
2022-11-16T16:46:05.109Z,15.60
2022-11-16T16:50:07.211Z,15.50
2022-11-16T16:54:14.092Z,15.40
2022-11-16T16:58:16.372Z,15.30
2022-11-16T17:02:18.930Z,15.30
2022-11-16T17:06:20.713Z,15.00
2022-11-16T17:10:23.376Z,15.10
2022-11-16T17:14:25.322Z,14.70
2022-11-16T17:18:27.150Z,14.70
2022-11-16T17:22:29.011Z,14.60
2022-11-16T17:26:30.818Z,14.60
2022-11-16T17:30:32.530Z,14.50
2022-11-16T17:35:32.580Z,14.20
2022-11-16T17:39:35.141Z,14.00
2022-11-16T17:43:37.139Z,14.00
2022-11-16T17:47:39.216Z,13.90
2022-11-16T17:51:41.151Z,14.30
2022-11-16T17:55:42.815Z,14.20
2022-11-16T17:59:44.805Z,14.10
2022-11-16T18:03:46.527Z,13.80
2022-11-16T18:07:48.257Z,13.60
2022-11-16T18:11:57.529Z,13.70
2022-11-16T18:16:12.988Z,13.70
2022-11-16T18:20:15.715Z,13.30
2022-11-16T18:24:17.561Z,13.20
2022-11-16T18:28:19.660Z,13.20
2022-11-16T18:32:21.412Z,13.30
2022-11-16T18:36:23.128Z,13.20
2022-11-16T18:40:24.847Z,13.10
2022-11-16T18:44:26.681Z,13.00
2022-11-16T18:48:28.759Z,13.00
2022-11-16T18:52:30.659Z,13.30
2022-11-16T18:56:32.428Z,12.90
2022-11-16T19:00:34.176Z,13.30
2022-11-16T19:04:36.225Z,12.90
2022-11-16T19:08:39.307Z,12.90
2022-11-16T19:12:41.061Z,12.70
2022-11-16T19:16:52.510Z,12.70
2022-11-16T19:21:07.218Z,12.70
2022-11-16T19:25:09.518Z,12.60
2022-11-16T19:29:11.201Z,12.30
2022-11-16T19:33:18.262Z,12.60
2022-11-16T19:37:20.060Z,12.30
2022-11-16T19:41:22.829Z,12.40
2022-11-16T19:45:24.540Z,12.10
2022-11-16T19:49:26.452Z,12.00
2022-11-16T19:53:28.310Z,12.00
2022-11-16T19:57:29.989Z,12.50
2022-11-16T20:01:31.810Z,12.40
2022-11-16T20:05:33.757Z,12.40
2022-11-16T20:09:35.533Z,12.30
2022-11-16T20:13:38.447Z,12.00
2022-11-16T20:17:40.106Z,12.00
2022-11-16T20:21:43.201Z,11.60
2022-11-16T20:25:44.940Z,12.20
2022-11-16T20:29:46.696Z,12.30
2022-11-16T20:33:56.598Z,12.40
2022-11-16T20:37:59.547Z,12.00
2022-11-16T20:42:01.253Z,12.10
2022-11-16T20:46:03.156Z,12.20
2022-11-16T20:50:05.299Z,12.50
2022-11-16T20:54:07.189Z,12.10
2022-11-16T20:58:08.935Z,12.40
2022-11-16T21:02:11.764Z,11.80
2022-11-16T21:06:14.700Z,11.90
2022-11-16T21:10:19.915Z,12.00
2022-11-16T21:14:22.958Z,11.70
2022-11-16T21:18:30.355Z,12.20
2022-11-16T21:22:32.933Z,12.30
2022-11-16T21:26:35.157Z,12.10
2022-11-16T21:30:36.922Z,12.30
2022-11-16T21:34:40.253Z,11.80
2022-11-16T21:38:43.089Z,11.90
2022-11-16T21:42:44.847Z,12.00
2022-11-16T21:46:46.870Z,12.40
2022-11-16T21:50:49.640Z,12.00
2022-11-16T21:54:56.831Z,12.00
2022-11-16T21:58:58.784Z,11.90
2022-11-16T22:03:00.629Z,11.90
2022-11-16T22:07:20.918Z,12.30
2022-11-16T22:11:22.733Z,12.10
2022-11-16T22:15:24.419Z,12.20
2022-11-16T22:19:26.123Z,12.20
2022-11-16T22:23:28.561Z,12.00
2022-11-16T22:27:30.384Z,12.00
2022-11-16T22:31:33.002Z,12.00
2022-11-16T22:35:36.550Z,12.10
2022-11-16T22:39:38.262Z,12.00
2022-11-16T22:43:40.218Z,12.30
2022-11-16T22:47:42.243Z,11.90
2022-11-16T22:51:44.077Z,11.90
2022-11-16T22:55:46.110Z,11.90
2022-11-16T22:59:47.820Z,11.70
2022-11-16T23:03:50.196Z,12.00
2022-11-16T23:07:54.929Z,12.40
2022-11-16T23:12:14.925Z,12.40
2022-11-16T23:16:16.629Z,12.60
2022-11-16T23:20:42.420Z,12.70
2022-11-16T23:25:20.343Z,12.70
2022-11-16T23:29:22.079Z,12.20
2022-11-16T23:33:43.750Z,12.60
2022-11-16T23:37:59.393Z,12.80
2022-11-16T23:42:20.130Z,12.50
2022-11-16T23:46:21.884Z,12.70
2022-11-16T23:50:23.597Z,12.60
2022-11-16T23:54:25.600Z,12.40
2022-11-16T23:58:27.247Z,12.60
